Time;durP1;ratioP1;P1;durP2;ratioP2;P2;SDS_P1;SDS_P2;PMS_P1;PMS_P2;Temp;Humidity;BMP_temperature;BMP_pressure;BME280_temperature;BME280_humidity;BME280_pressure;Samples;Min_cycle;Max_cycle;Signal;HPM_P1;HPM_P2
2022/03/20 00:00:07;;;;;;;12.35;5.95;;;;;;;;;;5062168;28;20049;-83
2022/03/20 00:02:40;;;;;;;10.82;5.20;;;;;;;;;;5036535;28;20493;-85
2022/03/20 00:05:09;;;;;;;11.25;5.50;;;;;;;;;;5038140;28;20053;-89
2022/03/20 00:07:38;;;;;;;11.88;5.68;;;;;;;;;;5038120;28;20040;-89
2022/03/20 00:10:06;;;;;;;12.65;5.38;;;;;;;;;;5055762;28;20074;-90
2022/03/20 00:12:35;;;;;;;13.20;5.90;;;;;;;;;;5047846;28;20058;-89
2022/03/20 00:15:05;;;;;;;13.07;5.90;;;;;;;;;;5042036;28;20040;-89
2022/03/20 00:17:32;;;;;;;13.07;6.03;;;;;;;;;;5054105;28;20541;-89
2022/03/20 00:20:00;;;;;;;13.00;6.75;;;;;;;;;;5045036;28;20144;-89
2022/03/20 00:22:28;;;;;;;12.10;6.60;;;;;;;;;;5040999;28;20088;-88
2022/03/20 00:24:57;;;;;;;12.23;6.53;;;;;;;;;;5040967;28;20496;-88
2022/03/20 00:27:26;;;;;;;15.57;6.80;;;;;;;;;;5067187;28;20120;-88
2022/03/20 00:29:54;;;;;;;14.48;6.53;;;;;;;;;;5059527;28;20882;-88
2022/03/20 00:32:23;;;;;;;15.60;6.47;;;;;;;;;;5053905;28;20105;-88
2022/03/20 00:34:56;;;;;;;13.68;7.22;;;;;;;;;;5064870;28;20135;-88
2022/03/20 00:37:26;;;;;;;19.58;6.90;;;;;;;;;;5058686;28;20051;-88
2022/03/20 00:39:55;;;;;;;17.30;7.72;;;;;;;;;;5072843;28;20082;-88
2022/03/20 00:42:23;;;;;;;17.00;7.10;;;;;;;;;;5044927;28;20056;-89
2022/03/20 00:44:51;;;;;;;17.95;7.80;;;;;;;;;;5063502;28;20481;-89
2022/03/20 00:47:19;;;;;;;15.93;7.85;;;;;;;;;;5079610;28;20146;-89
2022/03/20 00:49:47;;;;;;;18.60;7.63;;;;;;;;;;5075043;28;20052;-88
2022/03/20 00:52:15;;;;;;;18.33;7.07;;;;;;;;;;5060719;28;20486;-88
2022/03/20 00:54:43;;;;;;;17.35;7.80;;;;;;;;;;5039884;28;20040;-88
2022/03/20 00:57:11;;;;;;;19.83;8.00;;;;;;;;;;5057909;28;20040;-88
2022/03/20 00:59:40;;;;;;;15.80;7.60;;;;;;;;;;5044957;28;20044;-87
2022/03/20 01:02:08;;;;;;;18.95;7.28;;;;;;;;;;5031488;28;21881;-88
2022/03/20 01:04:38;;;;;;;19.45;8.20;;;;;;;;;;5056928;28;20086;-88
2022/03/20 01:07:06;;;;;;;17.58;8.07;;;;;;;;;;5063152;28;20036;-87
2022/03/20 01:09:33;;;;;;;16.83;7.50;;;;;;;;;;5068244;28;20035;-87
2022/03/20 01:12:02;;;;;;;14.68;8.10;;;;;;;;;;5073900;28;20128;-87
2022/03/20 01:14:34;;;;;;;16.63;7.80;;;;;;;;;;5070776;28;20374;-87
2022/03/20 01:17:01;;;;;;;22.48;8.35;;;;;;;;;;5069232;28;20064;-87
2022/03/20 01:19:29;;;;;;;18.20;8.93;;;;;;;;;;5051216;28;20939;-87
2022/03/20 01:21:57;;;;;;;19.52;8.50;;;;;;;;;;5043412;28;20517;-90
2022/03/20 01:24:27;;;;;;;20.10;9.20;;;;;;;;;;5081111;28;20044;-90
2022/03/20 01:26:55;;;;;;;16.55;8.00;;;;;;;;;;5059855;28;20366;-90
2022/03/20 01:29:23;;;;;;;19.70;9.15;;;;;;;;;;5077858;28;20157;-90
2022/03/20 01:31:51;;;;;;;14.90;8.32;;;;;;;;;;5034170;28;20048;-90
2022/03/20 01:34:19;;;;;;;18.90;9.63;;;;;;;;;;5065453;28;20538;-90
2022/03/20 01:36:47;;;;;;;19.75;8.43;;;;;;;;;;5055702;28;20044;-90
2022/03/20 01:39:15;;;;;;;16.00;7.82;;;;;;;;;;5041551;28;20063;-90
2022/03/20 01:41:46;;;;;;;20.17;8.20;;;;;;;;;;5060261;28;20041;-90
2022/03/20 01:44:13;;;;;;;17.63;8.15;;;;;;;;;;5073899;28;20037;-90
2022/03/20 01:46:41;;;;;;;17.63;8.20;;;;;;;;;;5050646;28;20560;-90
2022/03/20 01:49:09;;;;;;;15.90;7.95;;;;;;;;;;5043190;28;20091;-82
2022/03/20 01:54:45;;;;;;;19.80;8.68;;;;;;;;;;4974266;28;21112;-81
2022/03/20 01:57:16;;;;;;;18.38;8.82;;;;;;;;;;4963530;28;20066;-82
2022/03/20 01:59:44;;;;;;;19.80;8.90;;;;;;;;;;4971769;28;20051;-82
2022/03/20 02:02:13;;;;;;;18.98;7.97;;;;;;;;;;4983121;28;20057;-82
2022/03/20 02:04:41;;;;;;;21.50;9.05;;;;;;;;;;4968887;28;20093;-82
2022/03/20 02:07:09;;;;;;;20.98;8.80;;;;;;;;;;4979509;28;20486;-86
2022/03/20 02:09:39;;;;;;;16.60;7.63;;;;;;;;;;4953260;28;20046;-86
2022/03/20 02:12:09;;;;;;;14.95;7.50;;;;;;;;;;4967571;28;20054;-86
2022/03/20 02:14:37;;;;;;;15.82;8.13;;;;;;;;;;4974912;28;20050;-86
2022/03/20 02:17:07;;;;;;;21.17;9.25;;;;;;;;;;4990421;28;20791;-87
2022/03/20 02:19:35;;;;;;;18.88;8.43;;;;;;;;;;4975629;28;20051;-86
2022/03/20 02:22:03;;;;;;;16.98;8.00;;;;;;;;;;4963341;28;20046;-86
2022/03/20 02:24:41;;;;;;;19.05;9.05;;;;;;;;;;4994848;28;20046;-86
2022/03/20 02:27:24;;;;;;;15.93;8.00;;;;;;;;;;5050658;28;20033;-86
2022/03/20 02:29:57;;;;;;;18.02;8.35;;;;;;;;;;5073103;28;20099;-87
2022/03/20 02:32:27;;;;;;;12.88;7.35;;;;;;;;;;5059048;28;20131;-87
2022/03/20 02:35:00;;;;;;;19.50;9.65;;;;;;;;;;5046943;28;20101;-87
2022/03/20 02:37:28;;;;;;;18.17;8.15;;;;;;;;;;5077392;28;20042;-87
2022/03/20 02:39:58;;;;;;;17.08;8.65;;;;;;;;;;5066678;28;20041;-82
2022/03/20 02:42:26;;;;;;;18.55;9.35;;;;;;;;;;5047646;28;20048;-83
2022/03/20 02:45:00;;;;;;;19.27;9.57;;;;;;;;;;5065878;28;20102;-82
2022/03/20 02:47:32;;;;;;;19.80;9.05;;;;;;;;;;5075549;28;20058;-82
2022/03/20 02:50:03;;;;;;;22.55;8.65;;;;;;;;;;5068036;28;20119;-82
2022/03/20 02:52:43;;;;;;;19.48;9.25;;;;;;;;;;5071799;28;20040;-82
2022/03/20 02:55:13;;;;;;;26.58;9.40;;;;;;;;;;5075533;28;20090;-85
2022/03/20 02:57:42;;;;;;;21.25;10.35;;;;;;;;;;5075758;28;20032;-86
2022/03/20 03:00:11;;;;;;;19.40;9.55;;;;;;;;;;5068473;28;20087;-86
2022/03/20 03:02:43;;;;;;;20.17;9.25;;;;;;;;;;5071575;28;20055;-85
2022/03/20 03:05:14;;;;;;;22.65;8.82;;;;;;;;;;5040859;28;20121;-85
2022/03/20 03:13:18;;;;;;;20.67;8.57;;;;;;;;;;5065234;28;20029;-86
2022/03/20 03:15:46;;;;;;;18.73;9.43;;;;;;;;;;5071483;28;20041;-85
2022/03/20 03:18:14;;;;;;;21.17;9.23;;;;;;;;;;5077793;28;20132;-85
2022/03/20 03:20:42;;;;;;;19.30;8.90;;;;;;;;;;5044355;28;20440;-85
2022/03/20 03:23:10;;;;;;;21.80;9.70;;;;;;;;;;5075308;28;20033;-87
2022/03/20 03:25:38;;;;;;;20.77;9.50;;;;;;;;;;5052299;28;20041;-87
2022/03/20 03:28:10;;;;;;;23.10;10.45;;;;;;;;;;5067077;28;20515;-88
2022/03/20 03:30:40;;;;;;;18.42;9.70;;;;;;;;;;5063836;28;20030;-87
2022/03/20 03:33:08;;;;;;;20.90;9.88;;;;;;;;;;5049839;28;20127;-88
2022/03/20 03:35:43;;;;;;;19.77;9.38;;;;;;;;;;5056174;28;20042;-88
2022/03/20 03:38:14;;;;;;;16.88;7.57;;;;;;;;;;5064232;28;20036;-87
2022/03/20 03:40:44;;;;;;;23.25;10.85;;;;;;;;;;5073471;28;20048;-88
2022/03/20 03:43:14;;;;;;;21.85;8.77;;;;;;;;;;5052915;28;20033;-89
2022/03/20 03:45:43;;;;;;;24.25;10.55;;;;;;;;;;5075605;28;20071;-88
2022/03/20 03:48:11;;;;;;;20.25;10.10;;;;;;;;;;5064826;28;20049;-88
2022/03/20 03:50:40;;;;;;;19.10;9.35;;;;;;;;;;5040669;28;20451;-88
2022/03/20 03:53:10;;;;;;;19.40;9.82;;;;;;;;;;5056224;28;20039;-88
2022/03/20 03:55:44;;;;;;;24.48;9.90;;;;;;;;;;5078850;28;20031;-88
2022/03/20 03:58:15;;;;;;;20.80;9.75;;;;;;;;;;5058770;28;20393;-90
2022/03/20 04:00:46;;;;;;;17.65;9.18;;;;;;;;;;5039592;28;20051;-89
2022/03/20 04:03:16;;;;;;;19.27;9.70;;;;;;;;;;5060579;28;20044;-89
2022/03/20 04:05:44;;;;;;;21.42;9.77;;;;;;;;;;5071345;28;20044;-89
2022/03/20 04:08:15;;;;;;;20.38;9.57;;;;;;;;;;5071839;28;20032;-88
2022/03/20 04:10:42;;;;;;;18.67;8.98;;;;;;;;;;5082994;28;20123;-88
2022/03/20 04:13:10;;;;;;;23.98;10.65;;;;;;;;;;5069137;28;20465;-88
2022/03/20 04:15:39;;;;;;;22.08;9.85;;;;;;;;;;5049652;28;20212;-88
2022/03/20 04:18:06;;;;;;;19.42;10.02;;;;;;;;;;5038918;28;20108;-88
2022/03/20 04:20:34;;;;;;;24.35;10.70;;;;;;;;;;5050351;28;20044;-88
2022/03/20 04:25:48;;;;;;;20.67;9.15;;;;;;;;;;5067075;28;20064;-88
2022/03/20 04:28:17;;;;;;;25.70;10.77;;;;;;;;;;5057062;28;20075;-88
2022/03/20 04:30:48;;;;;;;24.48;10.50;;;;;;;;;;5051585;28;20041;-90
2022/03/20 04:33:16;;;;;;;23.98;10.23;;;;;;;;;;5060953;28;20021;-89
2022/03/20 04:35:44;;;;;;;23.13;10.70;;;;;;;;;;5077215;28;20106;-90
2022/03/20 04:38:12;;;;;;;21.30;9.40;;;;;;;;;;5064060;28;20033;-90
2022/03/20 04:40:40;;;;;;;19.33;9.30;;;;;;;;;;5072737;28;20025;-89
2022/03/20 04:43:08;;;;;;;21.00;9.98;;;;;;;;;;5077246;28;20036;-90
2022/03/20 04:45:36;;;;;;;22.80;10.25;;;;;;;;;;5053497;28;20072;-90
2022/03/20 04:59:10;;;;;;;22.15;10.43;;;;;;;;;;5081443;28;20506;-87
2022/03/20 05:01:38;;;;;;;20.73;10.35;;;;;;;;;;5078299;28;20082;-87
2022/03/20 05:04:06;;;;;;;19.63;9.98;;;;;;;;;;5066054;28;20036;-87
2022/03/20 05:06:34;;;;;;;19.52;10.48;;;;;;;;;;5061201;28;20033;-87
2022/03/20 05:14:34;;;;;;;22.27;10.23;;;;;;;;;;5082910;28;20040;-85
2022/03/20 05:17:09;;;;;;;23.73;10.00;;;;;;;;;;5088510;28;20028;-85
2022/03/20 05:19:38;;;;;;;20.73;10.32;;;;;;;;;;5084630;28;20028;-88
2022/03/20 05:22:10;;;;;;;21.63;10.02;;;;;;;;;;5085267;28;20024;-88
2022/03/20 05:24:39;;;;;;;18.08;10.15;;;;;;;;;;5073225;28;20017;-88
2022/03/20 05:27:08;;;;;;;24.92;10.70;;;;;;;;;;5080015;28;20077;-88
2022/03/20 05:29:36;;;;;;;21.98;10.00;;;;;;;;;;5062179;28;20040;-88
2022/03/20 05:32:05;;;;;;;19.73;9.77;;;;;;;;;;5061348;28;20116;-88
2022/03/20 05:34:33;;;;;;;22.00;11.63;;;;;;;;;;5092918;28;20058;-88
2022/03/20 05:37:01;;;;;;;24.95;11.43;;;;;;;;;;5069409;28;20036;-88
2022/03/20 05:39:28;;;;;;;20.35;9.68;;;;;;;;;;5068305;28;20040;-87
2022/03/20 05:41:56;;;;;;;20.35;10.23;;;;;;;;;;5080346;28;20051;-88
2022/03/20 05:44:26;;;;;;;21.10;10.45;;;;;;;;;;5092225;28;20048;-88
2022/03/20 05:46:55;;;;;;;22.30;10.13;;;;;;;;;;5076567;28;20032;-87
2022/03/20 05:49:23;;;;;;;22.20;9.20;;;;;;;;;;5069425;28;20045;-88
2022/03/20 05:51:51;;;;;;;22.88;10.02;;;;;;;;;;5081686;28;20064;-89
2022/03/20 05:54:18;;;;;;;19.90;10.07;;;;;;;;;;5063110;28;20036;-90
2022/03/20 05:59:35;;;;;;;23.63;10.82;;;;;;;;;;5090605;28;20067;-90
2022/03/20 06:02:04;;;;;;;20.55;9.88;;;;;;;;;;5072464;28;20044;-89
2022/03/20 06:04:31;;;;;;;22.02;10.88;;;;;;;;;;5074367;28;20095;-90
2022/03/20 06:06:59;;;;;;;23.35;10.00;;;;;;;;;;5071933;28;20100;-90
2022/03/20 06:09:27;;;;;;;23.08;10.57;;;;;;;;;;5070568;28;20052;-83
2022/03/20 06:11:56;;;;;;;21.35;9.90;;;;;;;;;;5066823;28;20109;-82
2022/03/20 06:14:29;;;;;;;25.02;10.30;;;;;;;;;;5068452;28;20041;-83
2022/03/20 06:16:58;;;;;;;19.85;9.82;;;;;;;;;;5063617;28;20029;-83
2022/03/20 06:19:27;;;;;;;21.90;10.48;;;;;;;;;;5072098;28;20112;-83
2022/03/20 06:21:55;;;;;;;22.15;10.18;;;;;;;;;;5086711;28;20048;-83
2022/03/20 06:24:23;;;;;;;24.48;11.15;;;;;;;;;;5082780;28;20128;-83
2022/03/20 06:26:51;;;;;;;21.73;9.32;;;;;;;;;;5082955;28;20045;-83
2022/03/20 06:29:20;;;;;;;25.10;10.20;;;;;;;;;;5081286;28;20107;-83
2022/03/20 06:31:50;;;;;;;21.45;10.77;;;;;;;;;;5035388;28;20036;-83
2022/03/20 06:34:17;;;;;;;19.42;9.50;;;;;;;;;;5070816;28;20036;-83
2022/03/20 06:36:45;;;;;;;14.43;8.68;;;;;;;;;;5069827;28;20079;-83
2022/03/20 06:39:13;;;;;;;25.55;11.00;;;;;;;;;;5053050;28;20064;-83
2022/03/20 06:41:41;;;;;;;22.05;10.15;;;;;;;;;;5044399;28;20048;-83
2022/03/20 06:44:15;;;;;;;23.38;10.57;;;;;;;;;;5066637;28;20193;-83
2022/03/20 06:46:43;;;;;;;22.90;10.75;;;;;;;;;;5063690;28;20037;-83
2022/03/20 06:49:11;;;;;;;19.80;10.55;;;;;;;;;;5079924;28;20029;-83
2022/03/20 06:51:39;;;;;;;20.55;10.10;;;;;;;;;;5087101;28;20075;-84
2022/03/20 06:54:07;;;;;;;21.08;10.38;;;;;;;;;;5079228;28;20393;-83
2022/03/20 06:56:35;;;;;;;21.25;9.98;;;;;;;;;;5080894;28;20104;-83
2022/03/20 06:59:03;;;;;;;22.23;10.48;;;;;;;;;;5066759;28;20044;-83
2022/03/20 07:01:31;;;;;;;10.40;6.20;;;;;;;;;;5067076;28;20074;-83
2022/03/20 07:03:59;;;;;;;19.08;9.00;;;;;;;;;;5047634;28;20037;-83
2022/03/20 07:06:29;;;;;;;23.58;10.68;;;;;;;;;;5076733;28;20144;-83
2022/03/20 07:09:00;;;;;;;20.00;9.60;;;;;;;;;;5066291;28;20031;-82
2022/03/20 07:11:32;;;;;;;16.33;8.50;;;;;;;;;;5055605;28;20110;-82
2022/03/20 07:14:00;;;;;;;19.23;9.50;;;;;;;;;;5050219;28;20041;-82
2022/03/20 07:16:30;;;;;;;22.27;9.98;;;;;;;;;;5065049;28;20045;-82
2022/03/20 07:18:58;;;;;;;18.25;8.60;;;;;;;;;;5049329;28;20123;-82
2022/03/20 07:21:25;;;;;;;23.58;10.27;;;;;;;;;;5064100;28;20438;-81
2022/03/20 07:23:54;;;;;;;18.70;8.70;;;;;;;;;;5070052;28;20041;-81
2022/03/20 07:31:57;;;;;;;14.40;7.80;;;;;;;;;;5060387;28;20050;-82
2022/03/20 07:34:26;;;;;;;11.93;5.53;;;;;;;;;;5048052;28;20488;-84
2022/03/20 07:36:53;;;;;;;18.92;8.93;;;;;;;;;;5044823;28;20051;-81
2022/03/20 07:39:21;;;;;;;22.20;11.07;;;;;;;;;;5060038;28;20044;-81
2022/03/20 07:41:49;;;;;;;13.02;6.72;;;;;;;;;;5038664;28;20055;-82
2022/03/20 07:44:24;;;;;;;12.63;6.22;;;;;;;;;;5060303;28;20076;-82
2022/03/20 07:46:54;;;;;;;14.77;6.35;;;;;;;;;;5034490;28;20475;-82
2022/03/20 07:49:23;;;;;;;19.13;9.75;;;;;;;;;;5061527;28;20061;-83
2022/03/20 07:51:53;;;;;;;9.50;5.25;;;;;;;;;;5042669;28;20106;-78
2022/03/20 07:54:21;;;;;;;13.15;7.03;;;;;;;;;;5036794;28;20143;-79
2022/03/20 07:56:49;;;;;;;22.17;10.00;;;;;;;;;;5042237;28;20049;-79
2022/03/20 07:59:17;;;;;;;19.88;9.35;;;;;;;;;;5055809;28;20136;-80
2022/03/20 08:01:45;;;;;;;19.58;8.65;;;;;;;;;;5056722;28;20043;-79
2022/03/20 08:04:13;;;;;;;17.95;9.82;;;;;;;;;;5027699;28;20060;-79
2022/03/20 08:06:41;;;;;;;18.80;9.15;;;;;;;;;;5060820;28;20379;-80
2022/03/20 08:09:09;;;;;;;19.77;9.95;;;;;;;;;;5052858;28;20051;-80
2022/03/20 08:11:37;;;;;;;13.75;5.25;;;;;;;;;;5058673;28;20036;-79
2022/03/20 08:14:08;;;;;;;17.67;8.15;;;;;;;;;;5049844;28;20486;-79
2022/03/20 08:16:39;;;;;;;16.35;9.38;;;;;;;;;;5059138;28;20047;-80
2022/03/20 08:19:11;;;;;;;23.25;9.93;;;;;;;;;;5034189;28;20061;-80
2022/03/20 08:21:39;;;;;;;24.88;8.45;;;;;;;;;;5057614;28;20048;-80
2022/03/20 08:24:07;;;;;;;17.30;8.77;;;;;;;;;;5043840;28;20041;-80
2022/03/20 08:26:35;;;;;;;11.32;5.75;;;;;;;;;;5061333;28;20551;-83
2022/03/20 08:29:03;;;;;;;20.05;10.07;;;;;;;;;;5047423;28;20036;-84
2022/03/20 08:31:34;;;;;;;13.98;7.13;;;;;;;;;;5056249;28;20049;-83
2022/03/20 08:34:01;;;;;;;18.83;9.45;;;;;;;;;;5050489;28;20036;-82
2022/03/20 08:36:29;;;;;;;19.48;9.40;;;;;;;;;;5055316;28;20048;-82
2022/03/20 08:38:57;;;;;;;19.80;8.70;;;;;;;;;;5068368;28;20524;-83
2022/03/20 08:41:25;;;;;;;19.38;9.40;;;;;;;;;;5069132;28;20076;-84
2022/03/20 08:43:53;;;;;;;16.85;9.00;;;;;;;;;;5073115;28;20101;-83
2022/03/20 08:46:23;;;;;;;14.75;7.47;;;;;;;;;;5052272;28;20048;-83
2022/03/20 08:48:51;;;;;;;18.70;10.23;;;;;;;;;;5050272;28;20029;-82
2022/03/20 08:51:19;;;;;;;14.90;7.85;;;;;;;;;;5035826;28;20051;-82
2022/03/20 08:53:48;;;;;;;13.68;6.85;;;;;;;;;;5048499;28;20037;-84
2022/03/20 08:56:15;;;;;;;18.88;9.27;;;;;;;;;;5068908;28;20033;-82
2022/03/20 08:58:44;;;;;;;10.13;5.88;;;;;;;;;;5037336;28;20043;-83
2022/03/20 09:01:11;;;;;;;22.85;10.65;;;;;;;;;;5064739;28;20160;-80
2022/03/20 09:03:39;;;;;;;12.20;6.55;;;;;;;;;;5062928;28;20044;-81
2022/03/20 09:06:07;;;;;;;25.48;8.70;;;;;;;;;;5062844;28;20040;-81
2022/03/20 09:08:36;;;;;;;20.83;9.85;;;;;;;;;;5066141;28;20416;-80
2022/03/20 09:11:03;;;;;;;16.08;8.15;;;;;;;;;;5064476;28;20044;-82
2022/03/20 09:13:31;;;;;;;12.55;6.68;;;;;;;;;;5065333;28;20055;-81
2022/03/20 09:19:03;;;;;;;19.17;9.45;;;;;;;;;;5061472;28;20511;-82
2022/03/20 09:21:34;;;;;;;20.90;10.75;;;;;;;;;;5062753;28;20863;-82
2022/03/20 09:24:02;;;;;;;17.08;9.68;;;;;;;;;;5058692;28;20528;-82
2022/03/20 09:26:29;;;;;;;13.43;6.72;;;;;;;;;;5055967;28;20063;-82
2022/03/20 09:28:57;;;;;;;16.35;9.35;;;;;;;;;;5048176;28;20037;-82
2022/03/20 09:31:26;;;;;;;19.23;9.73;;;;;;;;;;5063370;28;20060;-81
2022/03/20 09:33:54;;;;;;;21.80;10.77;;;;;;;;;;5064387;28;20041;-81
2022/03/20 09:36:22;;;;;;;16.73;9.32;;;;;;;;;;5065427;28;20075;-81
2022/03/20 09:38:50;;;;;;;21.77;10.40;;;;;;;;;;5042134;28;20029;-82
2022/03/20 09:41:18;;;;;;;21.55;8.95;;;;;;;;;;5063057;28;20364;-82
2022/03/20 09:43:46;;;;;;;21.67;9.93;;;;;;;;;;5063736;28;20043;-81
2022/03/20 09:46:15;;;;;;;18.83;9.77;;;;;;;;;;5066447;28;20033;-80
2022/03/20 09:48:46;;;;;;;14.45;7.40;;;;;;;;;;5062167;28;20048;-82
2022/03/20 09:51:14;;;;;;;21.35;10.57;;;;;;;;;;5049908;28;20028;-81
2022/03/20 09:53:42;;;;;;;12.80;7.00;;;;;;;;;;5062257;28;20113;-82
2022/03/20 09:56:11;;;;;;;21.73;9.35;;;;;;;;;;5062021;28;20040;-81
2022/03/20 09:58:38;;;;;;;22.67;10.57;;;;;;;;;;5064225;28;20895;-79
2022/03/20 10:01:06;;;;;;;13.13;7.15;;;;;;;;;;5059721;28;20130;-80
2022/03/20 10:03:37;;;;;;;25.63;12.70;;;;;;;;;;5060056;28;20028;-79
2022/03/20 10:06:16;;;;;;;17.20;9.32;;;;;;;;;;5061247;28;20032;-79
2022/03/20 10:08:56;;;;;;;24.65;10.43;;;;;;;;;;5059716;28;20431;-81
2022/03/20 10:11:25;;;;;;;16.35;9.23;;;;;;;;;;5051820;28;20114;-79
2022/03/20 10:14:09;;;;;;;16.55;8.43;;;;;;;;;;5056329;28;20040;-81
2022/03/20 10:16:38;;;;;;;13.50;6.90;;;;;;;;;;5042962;28;20048;-79
2022/03/20 10:19:24;;;;;;;18.15;9.65;;;;;;;;;;5061224;28;21984;-79
2022/03/20 10:22:07;;;;;;;23.77;11.35;;;;;;;;;;5050168;28;20041;-79
2022/03/20 10:24:36;;;;;;;21.90;11.52;;;;;;;;;;5058527;28;20044;-79
2022/03/20 10:27:04;;;;;;;19.17;9.18;;;;;;;;;;5058512;28;20378;-79
2022/03/20 10:29:33;;;;;;;24.17;10.95;;;;;;;;;;5040363;28;20068;-79
2022/03/20 10:32:08;;;;;;;12.50;5.60;;;;;;;;;;5055239;28;20033;-79
2022/03/20 10:34:51;;;;;;;22.05;10.30;;;;;;;;;;5029534;28;20424;-79
2022/03/20 10:37:20;;;;;;;17.80;8.45;;;;;;;;;;5069477;28;20040;-82
2022/03/20 10:39:48;;;;;;;17.33;9.25;;;;;;;;;;5047511;28;20494;-82
2022/03/20 10:42:16;;;;;;;23.55;11.63;;;;;;;;;;5054066;28;20094;-82
2022/03/20 10:44:44;;;;;;;22.95;10.63;;;;;;;;;;5028988;28;20071;-83
2022/03/20 10:47:13;;;;;;;22.85;11.25;;;;;;;;;;5064988;28;20048;-82
2022/03/20 10:50:09;;;;;;;22.40;10.77;;;;;;;;;;5052788;28;20037;-81
2022/03/20 10:52:38;;;;;;;21.75;9.73;;;;;;;;;;5047159;28;20105;-82
2022/03/20 10:55:10;;;;;;;21.98;10.60;;;;;;;;;;5067540;28;20041;-82
2022/03/20 10:57:39;;;;;;;21.05;10.82;;;;;;;;;;5068264;28;20064;-82
2022/03/20 11:00:14;;;;;;;21.35;11.13;;;;;;;;;;5065954;28;20044;-82
2022/03/20 11:02:42;;;;;;;23.45;11.18;;;;;;;;;;5067163;28;20763;-82
2022/03/20 11:05:10;;;;;;;19.33;10.48;;;;;;;;;;5062736;28;21245;-82
2022/03/20 11:07:38;;;;;;;14.38;8.35;;;;;;;;;;5053630;28;20036;-83
2022/03/20 11:10:11;;;;;;;20.02;9.07;;;;;;;;;;5042224;28;20090;-83
2022/03/20 11:12:40;;;;;;;21.27;9.65;;;;;;;;;;5067179;28;20406;-83
2022/03/20 11:15:09;;;;;;;18.23;10.02;;;;;;;;;;5043492;28;20072;-84
2022/03/20 11:17:45;;;;;;;19.05;11.10;;;;;;;;;;5067688;28;20051;-81
2022/03/20 11:20:14;;;;;;;19.95;8.95;;;;;;;;;;5052308;28;20105;-82
2022/03/20 11:22:53;;;;;;;19.15;10.73;;;;;;;;;;5060851;28;20124;-82
2022/03/20 11:25:24;;;;;;;13.27;6.55;;;;;;;;;;5063514;28;20032;-83
2022/03/20 11:28:01;;;;;;;22.35;11.77;;;;;;;;;;5027665;28;20776;-80
2022/03/20 11:30:32;;;;;;;21.70;12.10;;;;;;;;;;5049562;28;20067;-80
2022/03/20 11:33:01;;;;;;;22.33;11.95;;;;;;;;;;5067922;28;20032;-81
2022/03/20 11:35:33;;;;;;;18.33;8.23;;;;;;;;;;5052806;28;20067;-80
2022/03/20 11:38:17;;;;;;;23.70;12.35;;;;;;;;;;5038150;28;20049;-81
2022/03/20 11:41:17;;;;;;;20.08;11.23;;;;;;;;;;5063314;28;20037;-79
2022/03/20 11:44:12;;;;;;;25.30;10.45;;;;;;;;;;5068297;28;20581;-81
2022/03/20 11:46:43;;;;;;;18.33;9.63;;;;;;;;;;5063172;28;20037;-80
2022/03/20 11:49:17;;;;;;;19.20;10.52;;;;;;;;;;5079102;28;20041;-80
2022/03/20 11:52:07;;;;;;;15.90;9.55;;;;;;;;;;5034541;28;20068;-80
2022/03/20 11:54:41;;;;;;;25.80;10.88;;;;;;;;;;5066359;28;20052;-82
2022/03/20 11:57:35;;;;;;;13.82;6.70;;;;;;;;;;5054769;28;20048;-81
2022/03/20 12:00:18;;;;;;;19.10;10.60;;;;;;;;;;5065210;28;20029;-79
2022/03/20 12:02:50;;;;;;;19.17;10.30;;;;;;;;;;5039865;28;20079;-80
2022/03/20 12:05:21;;;;;;;18.67;10.70;;;;;;;;;;5042276;28;20911;-79
2022/03/20 12:08:05;;;;;;;27.92;11.65;;;;;;;;;;5065838;28;20041;-79
2022/03/20 12:10:45;;;;;;;18.75;8.88;;;;;;;;;;5069293;28;20083;-80
2022/03/20 12:13:33;;;;;;;26.45;12.23;;;;;;;;;;5063062;28;20123;-80
2022/03/20 12:16:02;;;;;;;13.30;8.05;;;;;;;;;;5055224;28;20660;-80
2022/03/20 12:19:05;;;;;;;22.20;11.07;;;;;;;;;;5037368;28;20032;-80
2022/03/20 12:21:56;;;;;;;19.85;10.98;;;;;;;;;;5056633;28;20432;-79
2022/03/20 12:24:39;;;;;;;21.05;9.35;;;;;;;;;;5069531;28;20048;-79
2022/03/20 12:27:24;;;;;;;20.70;9.30;;;;;;;;;;5038640;28;20125;-80
2022/03/20 12:30:12;;;;;;;20.42;10.68;;;;;;;;;;5067433;28;20043;-81
2022/03/20 12:32:50;;;;;;;19.25;10.63;;;;;;;;;;5070458;28;20516;-81
2022/03/20 12:35:21;;;;;;;23.08;11.65;;;;;;;;;;5073614;28;20040;-83
2022/03/20 12:37:52;;;;;;;22.48;11.57;;;;;;;;;;5053646;28;20112;-81
2022/03/20 12:40:29;;;;;;;21.35;10.88;;;;;;;;;;5057016;28;20032;-81
2022/03/20 12:43:20;;;;;;;18.45;10.38;;;;;;;;;;5064334;28;20041;-81
2022/03/20 12:45:55;;;;;;;22.00;10.35;;;;;;;;;;5039261;28;20649;-81
2022/03/20 12:48:22;;;;;;;19.05;10.23;;;;;;;;;;5032945;28;20080;-81
2022/03/20 12:51:06;;;;;;;18.65;10.20;;;;;;;;;;5055526;28;20135;-82
2022/03/20 12:53:45;;;;;;;21.30;11.25;;;;;;;;;;5052634;28;20047;-82
2022/03/20 12:58:56;;;;;;;21.55;11.00;;;;;;;;;;5065246;28;20567;-82
2022/03/20 13:01:25;;;;;;;16.63;7.25;;;;;;;;;;5036026;28;20033;-83
2022/03/20 13:03:54;;;;;;;14.00;7.90;;;;;;;;;;5028686;28;20118;-80
2022/03/20 13:06:27;;;;;;;20.17;11.25;;;;;;;;;;5017055;28;20061;-79
2022/03/20 13:08:56;;;;;;;22.30;10.77;;;;;;;;;;5062902;28;20048;-78
2022/03/20 13:11:48;;;;;;;21.95;11.25;;;;;;;;;;5044648;28;20139;-78
2022/03/20 13:14:16;;;;;;;24.00;11.75;;;;;;;;;;5045127;28;20132;-78
2022/03/20 13:16:58;;;;;;;18.60;8.80;;;;;;;;;;5042804;28;20143;-80
2022/03/20 13:19:35;;;;;;;8.23;5.03;;;;;;;;;;5048528;28;20036;-80
2022/03/20 13:22:09;;;;;;;20.27;9.93;;;;;;;;;;5038252;28;20761;-81
2022/03/20 13:24:40;;;;;;;19.92;9.70;;;;;;;;;;5050171;28;20033;-80
2022/03/20 13:27:10;;;;;;;19.95;9.10;;;;;;;;;;5053816;28;20040;-80
2022/03/20 13:29:40;;;;;;;18.08;9.05;;;;;;;;;;5044803;28;20036;-81
2022/03/20 13:32:10;;;;;;;19.25;9.60;;;;;;;;;;5017963;28;20650;-79
2022/03/20 13:34:46;;;;;;;19.45;9.25;;;;;;;;;;5053425;28;20110;-79
2022/03/20 13:37:20;;;;;;;19.58;10.57;;;;;;;;;;5047579;28;20110;-80
2022/03/20 13:39:54;;;;;;;14.80;7.13;;;;;;;;;;5076366;28;20101;-81
2022/03/20 13:42:23;;;;;;;19.35;9.85;;;;;;;;;;5064434;28;20056;-80
2022/03/20 13:44:53;;;;;;;18.00;10.55;;;;;;;;;;5045756;28;20109;-81
2022/03/20 13:47:24;;;;;;;26.80;10.57;;;;;;;;;;5048842;28;20098;-82
2022/03/20 13:49:54;;;;;;;19.27;10.43;;;;;;;;;;5046264;28;20064;-80
2022/03/20 13:52:26;;;;;;;20.17;9.90;;;;;;;;;;5043815;28;20032;-82
2022/03/20 13:55:13;;;;;;;15.88;7.40;;;;;;;;;;5053731;28;20055;-82
2022/03/20 13:57:55;;;;;;;22.85;10.45;;;;;;;;;;5071676;28;20421;-82
2022/03/20 14:00:31;;;;;;;17.95;8.35;;;;;;;;;;5066058;28;20155;-82
2022/03/20 14:03:02;;;;;;;17.08;8.68;;;;;;;;;;5037604;28;20044;-82
2022/03/20 14:05:30;;;;;;;21.40;10.25;;;;;;;;;;5060175;28;20041;-81
2022/03/20 14:08:14;;;;;;;19.42;9.23;;;;;;;;;;5073050;28;20040;-82
2022/03/20 14:10:59;;;;;;;19.25;9.60;;;;;;;;;;5065323;28;20041;-81
2022/03/20 14:13:28;;;;;;;15.77;7.10;;;;;;;;;;5076957;28;20052;-80
2022/03/20 14:16:08;;;;;;;21.70;9.57;;;;;;;;;;5037963;28;20059;-79
2022/03/20 14:18:57;;;;;;;18.95;9.48;;;;;;;;;;5066655;28;20044;-81
2022/03/20 14:21:31;;;;;;;19.40;9.20;;;;;;;;;;5044490;28;20087;-81
2022/03/20 14:24:02;;;;;;;19.08;9.80;;;;;;;;;;5057036;28;20458;-81
2022/03/20 14:26:36;;;;;;;15.80;8.82;;;;;;;;;;5064805;28;20107;-81
2022/03/20 14:41:25;;;;;;;18.95;9.73;;;;;;;;;;5070555;28;20115;-82
2022/03/20 14:44:13;;;;;;;16.73;8.45;;;;;;;;;;5071290;28;20049;-82
2022/03/20 14:46:51;;;;;;;18.63;8.57;;;;;;;;;;5073006;28;20102;-82
2022/03/20 14:49:21;;;;;;;14.80;8.10;;;;;;;;;;5070899;28;20033;-82
2022/03/20 14:51:56;;;;;;;16.75;8.43;;;;;;;;;;5076048;28;20059;-81
2022/03/20 14:54:25;;;;;;;17.65;8.13;;;;;;;;;;5063813;28;20033;-81
2022/03/20 14:56:56;;;;;;;19.45;9.60;;;;;;;;;;5024703;28;20048;-82
2022/03/20 14:59:24;;;;;;;16.10;7.35;;;;;;;;;;5066932;28;20040;-82
2022/03/20 15:01:52;;;;;;;17.33;8.52;;;;;;;;;;5047624;28;20055;-82
2022/03/20 15:04:21;;;;;;;18.60;9.13;;;;;;;;;;5051466;28;20087;-82
2022/03/20 15:06:53;;;;;;;18.92;8.55;;;;;;;;;;5057613;28;20101;-82
2022/03/20 15:12:08;;;;;;;14.07;7.07;;;;;;;;;;5061570;28;20445;-83
2022/03/20 15:14:36;;;;;;;17.17;9.10;;;;;;;;;;5048711;28;20569;-83
2022/03/20 15:17:04;;;;;;;17.08;9.45;;;;;;;;;;5048086;28;20030;-83
2022/03/20 15:19:32;;;;;;;19.25;9.60;;;;;;;;;;5047514;28;20396;-82
2022/03/20 15:22:00;;;;;;;18.75;8.82;;;;;;;;;;5055003;28;20355;-82
2022/03/20 15:24:28;;;;;;;22.95;9.38;;;;;;;;;;5054187;28;20045;-82
2022/03/20 15:26:56;;;;;;;12.68;6.80;;;;;;;;;;5073938;28;20041;-82
2022/03/20 15:29:24;;;;;;;18.40;9.20;;;;;;;;;;5053921;28;20037;-81
2022/03/20 15:31:54;;;;;;;19.08;9.63;;;;;;;;;;5058941;28;20036;-81
2022/03/20 15:34:23;;;;;;;23.10;9.98;;;;;;;;;;5066579;28;20435;-82
2022/03/20 15:36:51;;;;;;;17.42;9.35;;;;;;;;;;5054944;28;20052;-83
2022/03/20 15:39:20;;;;;;;11.45;6.70;;;;;;;;;;5057948;28;20059;-84
2022/03/20 15:41:49;;;;;;;18.58;9.65;;;;;;;;;;5067510;28;20087;-85
2022/03/20 15:44:18;;;;;;;17.02;9.05;;;;;;;;;;5078140;28;20050;-84